sensor_id;sensor_type;location;lat;lon;timestamp;P1;durP1;ratioP1;P2;durP2;ratioP2
10719;SDS011;5411;58.386;15.560;2023-09-19T00:00:47;15.63;;;12.87;;
10719;SDS011;5411;58.386;15.560;2023-09-19T00:03:16;15.73;;;14.13;;
10719;SDS011;5411;58.386;15.560;2023-09-19T00:05:44;20.27;;;13.93;;
10719;SDS011;5411;58.386;15.560;2023-09-19T00:08:14;17.33;;;14.37;;
10719;SDS011;5411;58.386;15.560;2023-09-19T00:10:42;17.23;;;13.37;;
10719;SDS011;5411;58.386;15.560;2023-09-19T00:13:12;17.37;;;14.60;;
10719;SDS011;5411;58.386;15.560;2023-09-19T00:15:43;19.17;;;15.07;;
10719;SDS011;5411;58.386;15.560;2023-09-19T00:18:16;16.57;;;14.03;;
10719;SDS011;5411;58.386;15.560;2023-09-19T00:20:47;19.80;;;14.53;;
10719;SDS011;5411;58.386;15.560;2023-09-19T00:23:19;19.00;;;14.77;;
10719;SDS011;5411;58.386;15.560;2023-09-19T00:25:47;18.67;;;14.60;;
10719;SDS011;5411;58.386;15.560;2023-09-19T00:28:18;17.50;;;14.27;;
10719;SDS011;5411;58.386;15.560;2023-09-19T00:30:48;20.13;;;14.43;;
10719;SDS011;5411;58.386;15.560;2023-09-19T00:33:18;17.73;;;14.30;;
10719;SDS011;5411;58.386;15.560;2023-09-19T00:35:46;16.97;;;14.33;;
10719;SDS011;5411;58.386;15.560;2023-09-19T00:38:15;21.07;;;15.17;;
10719;SDS011;5411;58.386;15.560;2023-09-19T00:40:44;20.00;;;14.77;;
10719;SDS011;5411;58.386;15.560;2023-09-19T00:43:14;24.67;;;15.40;;
10719;SDS011;5411;58.386;15.560;2023-09-19T00:45:45;18.40;;;14.73;;
10719;SDS011;5411;58.386;15.560;2023-09-19T00:48:15;20.33;;;14.73;;
10719;SDS011;5411;58.386;15.560;2023-09-19T00:50:47;21.80;;;16.20;;
10719;SDS011;5411;58.386;15.560;2023-09-19T00:53:19;17.80;;;15.03;;
10719;SDS011;5411;58.386;15.560;2023-09-19T00:55:49;21.73;;;16.77;;
10719;SDS011;5411;58.386;15.560;2023-09-19T00:58:19;24.43;;;16.80;;
10719;SDS011;5411;58.386;15.560;2023-09-19T01:00:51;21.40;;;16.13;;
10719;SDS011;5411;58.386;15.560;2023-09-19T01:03:22;19.90;;;15.80;;
10719;SDS011;5411;58.386;15.560;2023-09-19T01:05:50;21.07;;;16.43;;
10719;SDS011;5411;58.386;15.560;2023-09-19T01:08:21;21.00;;;16.93;;
10719;SDS011;5411;58.386;15.560;2023-09-19T01:10:51;19.13;;;15.60;;
10719;SDS011;5411;58.386;15.560;2023-09-19T01:13:25;19.40;;;15.27;;
10719;SDS011;5411;58.386;15.560;2023-09-19T01:16:03;21.13;;;16.73;;
10719;SDS011;5411;58.386;15.560;2023-09-19T01:18:40;22.47;;;17.03;;
10719;SDS011;5411;58.386;15.560;2023-09-19T01:21:17;20.67;;;16.53;;
10719;SDS011;5411;58.386;15.560;2023-09-19T01:24:01;20.13;;;16.30;;
10719;SDS011;5411;58.386;15.560;2023-09-19T01:26:49;18.93;;;16.07;;
10719;SDS011;5411;58.386;15.560;2023-09-19T01:29:34;17.57;;;15.53;;
10719;SDS011;5411;58.386;15.560;2023-09-19T01:32:10;21.47;;;17.43;;
10719;SDS011;5411;58.386;15.560;2023-09-19T01:34:45;20.40;;;16.97;;
10719;SDS011;5411;58.386;15.560;2023-09-19T01:37:17;24.93;;;17.20;;
10719;SDS011;5411;58.386;15.560;2023-09-19T01:39:47;22.87;;;17.70;;
10719;SDS011;5411;58.386;15.560;2023-09-19T01:42:24;20.27;;;16.67;;
10719;SDS011;5411;58.386;15.560;2023-09-19T01:45:03;19.03;;;16.60;;
10719;SDS011;5411;58.386;15.560;2023-09-19T01:47:41;27.67;;;17.90;;
10719;SDS011;5411;58.386;15.560;2023-09-19T01:50:17;20.30;;;17.43;;
10719;SDS011;5411;58.386;15.560;2023-09-19T01:52:57;22.90;;;17.33;;
10719;SDS011;5411;58.386;15.560;2023-09-19T01:55:32;24.07;;;17.47;;
10719;SDS011;5411;58.386;15.560;2023-09-19T01:58:06;21.53;;;17.07;;
10719;SDS011;5411;58.386;15.560;2023-09-19T02:00:42;22.57;;;17.13;;
10719;SDS011;5411;58.386;15.560;2023-09-19T02:03:19;19.30;;;16.97;;
10719;SDS011;5411;58.386;15.560;2023-09-19T02:05:50;22.40;;;18.27;;
10719;SDS011;5411;58.386;15.560;2023-09-19T02:08:21;19.77;;;17.00;;
10719;SDS011;5411;58.386;15.560;2023-09-19T02:10:52;23.17;;;18.30;;
10719;SDS011;5411;58.386;15.560;2023-09-19T02:13:21;21.87;;;17.57;;
10719;SDS011;5411;58.386;15.560;2023-09-19T02:15:54;24.53;;;18.13;;
10719;SDS011;5411;58.386;15.560;2023-09-19T02:18:24;20.83;;;17.07;;
10719;SDS011;5411;58.386;15.560;2023-09-19T02:21:03;22.93;;;17.13;;
10719;SDS011;5411;58.386;15.560;2023-09-19T02:23:35;25.93;;;18.23;;
10719;SDS011;5411;58.386;15.560;2023-09-19T02:26:04;20.37;;;17.57;;
10719;SDS011;5411;58.386;15.560;2023-09-19T02:28:33;27.53;;;19.13;;
10719;SDS011;5411;58.386;15.560;2023-09-19T02:31:03;22.23;;;17.23;;
10719;SDS011;5411;58.386;15.560;2023-09-19T02:33:33;23.93;;;18.97;;
10719;SDS011;5411;58.386;15.560;2023-09-19T02:36:04;24.10;;;19.00;;
10719;SDS011;5411;58.386;15.560;2023-09-19T02:38:33;23.30;;;18.87;;
10719;SDS011;5411;58.386;15.560;2023-09-19T02:41:04;24.20;;;18.43;;
10719;SDS011;5411;58.386;15.560;2023-09-19T02:43:33;21.40;;;17.57;;
10719;SDS011;5411;58.386;15.560;2023-09-19T02:46:02;21.80;;;18.23;;
10719;SDS011;5411;58.386;15.560;2023-09-19T02:48:30;23.90;;;18.63;;
10719;SDS011;5411;58.386;15.560;2023-09-19T02:51:02;20.17;;;18.00;;
10719;SDS011;5411;58.386;15.560;2023-09-19T02:53:31;22.27;;;18.03;;
10719;SDS011;5411;58.386;15.560;2023-09-19T02:56:00;22.83;;;18.70;;
10719;SDS011;5411;58.386;15.560;2023-09-19T02:58:29;23.57;;;18.53;;
10719;SDS011;5411;58.386;15.560;2023-09-19T03:01:07;24.50;;;18.73;;
10719;SDS011;5411;58.386;15.560;2023-09-19T03:03:38;23.33;;;18.33;;
10719;SDS011;5411;58.386;15.560;2023-09-19T03:06:09;25.23;;;19.43;;
10719;SDS011;5411;58.386;15.560;2023-09-19T03:08:40;23.03;;;19.20;;
10719;SDS011;5411;58.386;15.560;2023-09-19T03:11:09;24.10;;;19.23;;
10719;SDS011;5411;58.386;15.560;2023-09-19T03:13:38;21.93;;;18.73;;
10719;SDS011;5411;58.386;15.560;2023-09-19T03:16:07;24.63;;;19.37;;
10719;SDS011;5411;58.386;15.560;2023-09-19T03:18:35;21.90;;;18.67;;
10719;SDS011;5411;58.386;15.560;2023-09-19T03:21:03;25.90;;;20.53;;
10719;SDS011;5411;58.386;15.560;2023-09-19T03:23:33;25.93;;;19.80;;
10719;SDS011;5411;58.386;15.560;2023-09-19T03:26:02;25.13;;;20.80;;
10719;SDS011;5411;58.386;15.560;2023-09-19T03:28:33;25.73;;;20.53;;
10719;SDS011;5411;58.386;15.560;2023-09-19T03:31:02;24.77;;;20.67;;
10719;SDS011;5411;58.386;15.560;2023-09-19T03:33:32;23.90;;;20.07;;
10719;SDS011;5411;58.386;15.560;2023-09-19T03:36:00;25.53;;;20.23;;
10719;SDS011;5411;58.386;15.560;2023-09-19T03:38:34;26.13;;;19.83;;
10719;SDS011;5411;58.386;15.560;2023-09-19T03:41:03;26.37;;;20.43;;
10719;SDS011;5411;58.386;15.560;2023-09-19T03:43:32;25.73;;;20.70;;
10719;SDS011;5411;58.386;15.560;2023-09-19T03:46:01;24.17;;;20.33;;
10719;SDS011;5411;58.386;15.560;2023-09-19T03:48:30;24.50;;;20.10;;
10719;SDS011;5411;58.386;15.560;2023-09-19T03:51:00;29.60;;;21.93;;
10719;SDS011;5411;58.386;15.560;2023-09-19T03:53:29;26.07;;;21.53;;
10719;SDS011;5411;58.386;15.560;2023-09-19T03:55:58;25.23;;;21.77;;
10719;SDS011;5411;58.386;15.560;2023-09-19T03:58:28;27.60;;;21.47;;
10719;SDS011;5411;58.386;15.560;2023-09-19T04:00:56;27.93;;;21.43;;
10719;SDS011;5411;58.386;15.560;2023-09-19T04:03:25;22.33;;;19.97;;
10719;SDS011;5411;58.386;15.560;2023-09-19T04:06:01;25.20;;;20.67;;
10719;SDS011;5411;58.386;15.560;2023-09-19T04:08:30;23.23;;;19.80;;
10719;SDS011;5411;58.386;15.560;2023-09-19T04:10:59;21.67;;;19.30;;
10719;SDS011;5411;58.386;15.560;2023-09-19T04:13:28;21.70;;;19.10;;
10719;SDS011;5411;58.386;15.560;2023-09-19T04:15:58;21.13;;;18.23;;
10719;SDS011;5411;58.386;15.560;2023-09-19T04:18:26;21.93;;;18.03;;
10719;SDS011;5411;58.386;15.560;2023-09-19T04:20:57;20.93;;;17.77;;
10719;SDS011;5411;58.386;15.560;2023-09-19T04:23:26;24.63;;;18.67;;
10719;SDS011;5411;58.386;15.560;2023-09-19T04:25:54;21.20;;;17.30;;
10719;SDS011;5411;58.386;15.560;2023-09-19T04:28:24;24.03;;;17.90;;
10719;SDS011;5411;58.386;15.560;2023-09-19T04:30:54;19.43;;;16.77;;
10719;SDS011;5411;58.386;15.560;2023-09-19T04:33:23;20.83;;;18.00;;
10719;SDS011;5411;58.386;15.560;2023-09-19T04:35:54;21.03;;;18.53;;
10719;SDS011;5411;58.386;15.560;2023-09-19T04:38:26;21.63;;;18.07;;
10719;SDS011;5411;58.386;15.560;2023-09-19T04:40:56;23.57;;;17.67;;
10719;SDS011;5411;58.386;15.560;2023-09-19T04:43:27;19.80;;;17.57;;
10719;SDS011;5411;58.386;15.560;2023-09-19T04:45:57;19.67;;;17.43;;
10719;SDS011;5411;58.386;15.560;2023-09-19T04:48:27;22.77;;;18.90;;
10719;SDS011;5411;58.386;15.560;2023-09-19T04:50:55;21.57;;;18.43;;
10719;SDS011;5411;58.386;15.560;2023-09-19T04:53:28;24.97;;;19.33;;
10719;SDS011;5411;58.386;15.560;2023-09-19T04:55:57;22.47;;;17.60;;
10719;SDS011;5411;58.386;15.560;2023-09-19T04:58:25;22.87;;;17.83;;
10719;SDS011;5411;58.386;15.560;2023-09-19T05:00:55;21.07;;;18.03;;
10719;SDS011;5411;58.386;15.560;2023-09-19T05:03:25;23.07;;;17.93;;
10719;SDS011;5411;58.386;15.560;2023-09-19T05:05:54;19.60;;;17.47;;
10719;SDS011;5411;58.386;15.560;2023-09-19T05:08:22;20.73;;;16.47;;
10719;SDS011;5411;58.386;15.560;2023-09-19T05:10:51;21.37;;;19.17;;
10719;SDS011;5411;58.386;15.560;2023-09-19T05:13:22;19.53;;;17.13;;
10719;SDS011;5411;58.386;15.560;2023-09-19T05:15:51;19.00;;;16.13;;
10719;SDS011;5411;58.386;15.560;2023-09-19T05:18:21;19.27;;;17.27;;
10719;SDS011;5411;58.386;15.560;2023-09-19T05:20:49;20.00;;;16.07;;
10719;SDS011;5411;58.386;15.560;2023-09-19T05:23:17;21.07;;;16.80;;
10719;SDS011;5411;58.386;15.560;2023-09-19T05:25:48;22.83;;;16.00;;
10719;SDS011;5411;58.386;15.560;2023-09-19T05:28:16;21.43;;;16.17;;
10719;SDS011;5411;58.386;15.560;2023-09-19T05:30:45;18.73;;;15.07;;
10719;SDS011;5411;58.386;15.560;2023-09-19T05:33:14;19.50;;;15.73;;
10719;SDS011;5411;58.386;15.560;2023-09-19T05:35:46;23.10;;;16.00;;
10719;SDS011;5411;58.386;15.560;2023-09-19T05:38:16;18.80;;;14.90;;
10719;SDS011;5411;58.386;15.560;2023-09-19T05:40:46;18.00;;;14.87;;
10719;SDS011;5411;58.386;15.560;2023-09-19T05:43:15;18.27;;;15.10;;
10719;SDS011;5411;58.386;15.560;2023-09-19T05:45:43;19.50;;;15.60;;
10719;SDS011;5411;58.386;15.560;2023-09-19T05:48:13;19.60;;;15.30;;
10719;SDS011;5411;58.386;15.560;2023-09-19T05:50:43;17.63;;;14.87;;
10719;SDS011;5411;58.386;15.560;2023-09-19T05:53:15;15.93;;;14.33;;
10719;SDS011;5411;58.386;15.560;2023-09-19T05:55:45;17.17;;;14.23;;
10719;SDS011;5411;58.386;15.560;2023-09-19T05:58:13;19.53;;;14.13;;
10719;SDS011;5411;58.386;15.560;2023-09-19T06:00:43;15.30;;;13.80;;
10719;SDS011;5411;58.386;15.560;2023-09-19T06:03:14;15.60;;;13.90;;
10719;SDS011;5411;58.386;15.560;2023-09-19T06:05:45;15.87;;;12.20;;
10719;SDS011;5411;58.386;15.560;2023-09-19T06:08:19;15.33;;;13.20;;
10719;SDS011;5411;58.386;15.560;2023-09-19T06:10:48;14.10;;;12.20;;
10719;SDS011;5411;58.386;15.560;2023-09-19T06:13:19;13.47;;;12.17;;
10719;SDS011;5411;58.386;15.560;2023-09-19T06:15:48;13.77;;;12.37;;
10719;SDS011;5411;58.386;15.560;2023-09-19T06:18:16;13.17;;;11.87;;
10719;SDS011;5411;58.386;15.560;2023-09-19T06:20:46;12.83;;;11.53;;
10719;SDS011;5411;58.386;15.560;2023-09-19T06:23:21;13.40;;;11.00;;
10719;SDS011;5411;58.386;15.560;2023-09-19T06:25:52;12.57;;;11.30;;
10719;SDS011;5411;58.386;15.560;2023-09-19T06:28:28;12.03;;;10.63;;
10719;SDS011;5411;58.386;15.560;2023-09-19T06:30:57;11.80;;;10.60;;
10719;SDS011;5411;58.386;15.560;2023-09-19T06:33:26;12.67;;;11.23;;
10719;SDS011;5411;58.386;15.560;2023-09-19T06:35:54;12.77;;;11.07;;
10719;SDS011;5411;58.386;15.560;2023-09-19T06:38:29;11.97;;;10.77;;
10719;SDS011;5411;58.386;15.560;2023-09-19T06:41:00;11.50;;;10.17;;
10719;SDS011;5411;58.386;15.560;2023-09-19T06:43:30;12.13;;;10.77;;
10719;SDS011;5411;58.386;15.560;2023-09-19T06:46:00;11.00;;;9.93;;
10719;SDS011;5411;58.386;15.560;2023-09-19T06:48:29;11.90;;;9.80;;
10719;SDS011;5411;58.386;15.560;2023-09-19T06:51:00;11.07;;;9.57;;
10719;SDS011;5411;58.386;15.560;2023-09-19T06:53:35;10.07;;;8.23;;
10719;SDS011;5411;58.386;15.560;2023-09-19T06:56:03;11.27;;;8.73;;
10719;SDS011;5411;58.386;15.560;2023-09-19T06:58:33;9.53;;;8.43;;
10719;SDS011;5411;58.386;15.560;2023-09-19T07:01:03;9.23;;;8.27;;
10719;SDS011;5411;58.386;15.560;2023-09-19T07:03:31;12.83;;;7.83;;
10719;SDS011;5411;58.386;15.560;2023-09-19T07:06:00;8.63;;;7.73;;
10719;SDS011;5411;58.386;15.560;2023-09-19T07:08:32;9.30;;;7.10;;
10719;SDS011;5411;58.386;15.560;2023-09-19T07:11:01;7.57;;;6.80;;
10719;SDS011;5411;58.386;15.560;2023-09-19T07:13:32;7.73;;;6.93;;
10719;SDS011;5411;58.386;15.560;2023-09-19T07:16:01;7.47;;;6.27;;
10719;SDS011;5411;58.386;15.560;2023-09-19T07:18:30;6.70;;;5.63;;
10719;SDS011;5411;58.386;15.560;2023-09-19T07:20:58;7.83;;;6.33;;
10719;SDS011;5411;58.386;15.560;2023-09-19T07:23:33;7.13;;;6.37;;
10719;SDS011;5411;58.386;15.560;2023-09-19T07:26:02;6.50;;;5.53;;
10719;SDS011;5411;58.386;15.560;2023-09-19T07:28:31;8.43;;;5.63;;
10719;SDS011;5411;58.386;15.560;2023-09-19T07:31:02;6.17;;;5.40;;
10719;SDS011;5411;58.386;15.560;2023-09-19T07:33:33;6.80;;;5.20;;
10719;SDS011;5411;58.386;15.560;2023-09-19T07:36:02;5.47;;;4.93;;
10719;SDS011;5411;58.386;15.560;2023-09-19T07:38:32;7.83;;;5.43;;
10719;SDS011;5411;58.386;15.560;2023-09-19T07:41:02;7.93;;;5.40;;
10719;SDS011;5411;58.386;15.560;2023-09-19T07:43:32;5.40;;;4.80;;
10719;SDS011;5411;58.386;15.560;2023-09-19T07:46:02;5.07;;;4.60;;
10719;SDS011;5411;58.386;15.560;2023-09-19T07:48:33;4.90;;;4.40;;
10719;SDS011;5411;58.386;15.560;2023-09-19T07:51:02;6.27;;;4.13;;
10719;SDS011;5411;58.386;15.560;2023-09-19T07:53:32;5.23;;;3.87;;
10719;SDS011;5411;58.386;15.560;2023-09-19T07:56:02;6.87;;;4.10;;
10719;SDS011;5411;58.386;15.560;2023-09-19T07:58:30;7.00;;;4.10;;
10719;SDS011;5411;58.386;15.560;2023-09-19T08:01:03;8.37;;;4.37;;
10719;SDS011;5411;58.386;15.560;2023-09-19T08:03:33;7.97;;;4.77;;
10719;SDS011;5411;58.386;15.560;2023-09-19T08:06:04;6.33;;;4.60;;
10719;SDS011;5411;58.386;15.560;2023-09-19T08:08:40;5.07;;;3.30;;
10719;SDS011;5411;58.386;15.560;2023-09-19T08:11:09;4.80;;;3.47;;
10719;SDS011;5411;58.386;15.560;2023-09-19T08:13:39;3.50;;;2.80;;
10719;SDS011;5411;58.386;15.560;2023-09-19T08:16:12;3.43;;;3.13;;
10719;SDS011;5411;58.386;15.560;2023-09-19T08:18:41;4.77;;;2.83;;
10719;SDS011;5411;58.386;15.560;2023-09-19T08:21:11;4.00;;;2.30;;
10719;SDS011;5411;58.386;15.560;2023-09-19T08:23:44;2.83;;;1.80;;
10719;SDS011;5411;58.386;15.560;2023-09-19T08:26:14;1.97;;;1.87;;
10719;SDS011;5411;58.386;15.560;2023-09-19T08:28:51;15.83;;;6.20;;
10719;SDS011;5411;58.386;15.560;2023-09-19T08:31:20;3.63;;;2.10;;
10719;SDS011;5411;58.386;15.560;2023-09-19T08:33:49;3.83;;;2.20;;
10719;SDS011;5411;58.386;15.560;2023-09-19T08:36:20;2.20;;;2.00;;
10719;SDS011;5411;58.386;15.560;2023-09-19T08:38:50;3.13;;;2.03;;
10719;SDS011;5411;58.386;15.560;2023-09-19T08:41:19;2.90;;;1.90;;
10719;SDS011;5411;58.386;15.560;2023-09-19T08:43:48;3.23;;;2.00;;
10719;SDS011;5411;58.386;15.560;2023-09-19T08:46:20;2.77;;;1.90;;
10719;SDS011;5411;58.386;15.560;2023-09-19T08:49:03;3.00;;;1.90;;
10719;SDS011;5411;58.386;15.560;2023-09-19T08:51:33;3.33;;;1.90;;
10719;SDS011;5411;58.386;15.560;2023-09-19T08:54:16;2.90;;;1.80;;
10719;SDS011;5411;58.386;15.560;2023-09-19T08:56:49;2.67;;;1.80;;
10719;SDS011;5411;58.386;15.560;2023-09-19T08:59:20;2.87;;;2.43;;
10719;SDS011;5411;58.386;15.560;2023-09-19T09:01:56;6.77;;;2.63;;
10719;SDS011;5411;58.386;15.560;2023-09-19T09:04:29;2.73;;;2.00;;
10719;SDS011;5411;58.386;15.560;2023-09-19T09:06:57;3.67;;;1.63;;
10719;SDS011;5411;58.386;15.560;2023-09-19T09:09:36;3.73;;;1.80;;
10719;SDS011;5411;58.386;15.560;2023-09-19T09:12:09;3.67;;;1.77;;
10719;SDS011;5411;58.386;15.560;2023-09-19T09:14:40;2.90;;;1.83;;
10719;SDS011;5411;58.386;15.560;2023-09-19T09:17:12;3.70;;;2.17;;
10719;SDS011;5411;58.386;15.560;2023-09-19T09:19:42;3.30;;;1.97;;
10719;SDS011;5411;58.386;15.560;2023-09-19T09:22:10;3.63;;;1.90;;
10719;SDS011;5411;58.386;15.560;2023-09-19T09:24:51;2.73;;;2.10;;
10719;SDS011;5411;58.386;15.560;2023-09-19T09:27:24;4.30;;;2.33;;
10719;SDS011;5411;58.386;15.560;2023-09-19T09:29:53;3.10;;;1.70;;
10719;SDS011;5411;58.386;15.560;2023-09-19T09:32:23;2.93;;;1.80;;
10719;SDS011;5411;58.386;15.560;2023-09-19T09:34:53;3.80;;;2.00;;
10719;SDS011;5411;58.386;15.560;2023-09-19T09:37:27;3.77;;;2.43;;
10719;SDS011;5411;58.386;15.560;2023-09-19T09:39:59;1.77;;;1.60;;
10719;SDS011;5411;58.386;15.560;2023-09-19T09:42:48;5.23;;;1.77;;
10719;SDS011;5411;58.386;15.560;2023-09-19T09:45:25;2.30;;;1.77;;
10719;SDS011;5411;58.386;15.560;2023-09-19T09:48:04;3.77;;;2.00;;
10719;SDS011;5411;58.386;15.560;2023-09-19T09:50:46;3.33;;;1.90;;
10719;SDS011;5411;58.386;15.560;2023-09-19T09:53:22;4.33;;;1.73;;
10719;SDS011;5411;58.386;15.560;2023-09-19T09:56:00;3.77;;;1.97;;
10719;SDS011;5411;58.386;15.560;2023-09-19T09:58:33;3.77;;;1.70;;
10719;SDS011;5411;58.386;15.560;2023-09-19T10:01:03;5.53;;;1.80;;
10719;SDS011;5411;58.386;15.560;2023-09-19T10:03:37;4.13;;;2.03;;
10719;SDS011;5411;58.386;15.560;2023-09-19T10:06:09;2.80;;;1.60;;
10719;SDS011;5411;58.386;15.560;2023-09-19T10:08:59;3.20;;;1.60;;
10719;SDS011;5411;58.386;15.560;2023-09-19T10:11:41;3.27;;;2.00;;
10719;SDS011;5411;58.386;15.560;2023-09-19T10:14:11;5.20;;;1.97;;
10719;SDS011;5411;58.386;15.560;2023-09-19T10:16:41;5.27;;;2.20;;
10719;SDS011;5411;58.386;15.560;2023-09-19T10:19:15;2.83;;;1.77;;
10719;SDS011;5411;58.386;15.560;2023-09-19T10:21:53;2.90;;;2.17;;
10719;SDS011;5411;58.386;15.560;2023-09-19T10:24:23;4.03;;;1.97;;
10719;SDS011;5411;58.386;15.560;2023-09-19T10:26:56;4.43;;;2.27;;
10719;SDS011;5411;58.386;15.560;2023-09-19T10:32:07;3.07;;;2.27;;
10719;SDS011;5411;58.386;15.560;2023-09-19T10:34:36;5.00;;;2.60;;
10719;SDS011;5411;58.386;15.560;2023-09-19T10:37:08;4.93;;;2.53;;
10719;SDS011;5411;58.386;15.560;2023-09-19T10:39:40;3.33;;;2.17;;
10719;SDS011;5411;58.386;15.560;2023-09-19T10:42:10;4.43;;;1.90;;
10719;SDS011;5411;58.386;15.560;2023-09-19T10:44:44;2.47;;;2.03;;
10719;SDS011;5411;58.386;15.560;2023-09-19T10:47:13;4.80;;;1.90;;
10719;SDS011;5411;58.386;15.560;2023-09-19T10:49:45;7.17;;;2.30;;
10719;SDS011;5411;58.386;15.560;2023-09-19T10:52:15;2.23;;;1.80;;
10719;SDS011;5411;58.386;15.560;2023-09-19T10:54:51;2.33;;;1.90;;
10719;SDS011;5411;58.386;15.560;2023-09-19T10:57:25;2.60;;;2.10;;
10719;SDS011;5411;58.386;15.560;2023-09-19T11:00:00;3.73;;;2.17;;
10719;SDS011;5411;58.386;15.560;2023-09-19T11:06:02;3.67;;;2.03;;
10719;SDS011;5411;58.386;15.560;2023-09-19T11:08:52;2.87;;;2.03;;
10719;SDS011;5411;58.386;15.560;2023-09-19T11:11:45;4.00;;;2.27;;
10719;SDS011;5411;58.386;15.560;2023-09-19T11:14:32;3.77;;;1.93;;
10719;SDS011;5411;58.386;15.560;2023-09-19T11:20:20;3.40;;;2.10;;
10719;SDS011;5411;58.386;15.560;2023-09-19T11:23:23;3.07;;;1.93;;
10719;SDS011;5411;58.386;15.560;2023-09-19T11:25:54;3.77;;;1.63;;
10719;SDS011;5411;58.386;15.560;2023-09-19T11:28:29;2.17;;;1.77;;
10719;SDS011;5411;58.386;15.560;2023-09-19T11:34:46;2.50;;;1.47;;
10719;SDS011;5411;58.386;15.560;2023-09-19T11:40:37;3.63;;;1.90;;
10719;SDS011;5411;58.386;15.560;2023-09-19T11:46:05;2.63;;;1.50;;
10719;SDS011;5411;58.386;15.560;2023-09-19T11:48:40;2.47;;;1.57;;
10719;SDS011;5411;58.386;15.560;2023-09-19T11:51:13;3.17;;;1.70;;
10719;SDS011;5411;58.386;15.560;2023-09-19T11:53:54;3.70;;;1.90;;
10719;SDS011;5411;58.386;15.560;2023-09-19T11:56:26;4.33;;;1.97;;
10719;SDS011;5411;58.386;15.560;2023-09-19T11:58:58;2.37;;;1.43;;
10719;SDS011;5411;58.386;15.560;2023-09-19T12:01:29;3.00;;;1.80;;
10719;SDS011;5411;58.386;15.560;2023-09-19T12:04:00;2.60;;;1.53;;
10719;SDS011;5411;58.386;15.560;2023-09-19T12:06:33;1.93;;;1.60;;
10719;SDS011;5411;58.386;15.560;2023-09-19T12:09:02;3.07;;;1.90;;
10719;SDS011;5411;58.386;15.560;2023-09-19T12:11:33;3.87;;;1.60;;
10719;SDS011;5411;58.386;15.560;2023-09-19T12:14:11;3.33;;;1.50;;
10719;SDS011;5411;58.386;15.560;2023-09-19T12:16:40;2.00;;;1.57;;
10719;SDS011;5411;58.386;15.560;2023-09-19T12:19:19;5.30;;;2.43;;
10719;SDS011;5411;58.386;15.560;2023-09-19T12:22:09;2.43;;;1.50;;
10719;SDS011;5411;58.386;15.560;2023-09-19T12:24:37;3.10;;;1.90;;
10719;SDS011;5411;58.386;15.560;2023-09-19T12:27:09;3.33;;;1.80;;
10719;SDS011;5411;58.386;15.560;2023-09-19T12:29:44;2.90;;;1.67;;
10719;SDS011;5411;58.386;15.560;2023-09-19T12:32:15;2.47;;;1.67;;
10719;SDS011;5411;58.386;15.560;2023-09-19T12:34:52;3.30;;;1.87;;
10719;SDS011;5411;58.386;15.560;2023-09-19T12:37:23;4.90;;;2.00;;
10719;SDS011;5411;58.386;15.560;2023-09-19T12:40:03;2.73;;;1.67;;
10719;SDS011;5411;58.386;15.560;2023-09-19T12:42:41;1.73;;;1.57;;
10719;SDS011;5411;58.386;15.560;2023-09-19T12:45:11;3.50;;;1.90;;
10719;SDS011;5411;58.386;15.560;2023-09-19T12:53:30;3.67;;;2.13;;
10719;SDS011;5411;58.386;15.560;2023-09-19T12:56:00;5.60;;;1.43;;
10719;SDS011;5411;58.386;15.560;2023-09-19T12:58:32;3.67;;;1.93;;
10719;SDS011;5411;58.386;15.560;2023-09-19T13:01:01;3.07;;;1.57;;
10719;SDS011;5411;58.386;15.560;2023-09-19T13:03:41;4.30;;;1.70;;
10719;SDS011;5411;58.386;15.560;2023-09-19T13:06:10;2.73;;;1.60;;
10719;SDS011;5411;58.386;15.560;2023-09-19T13:08:41;3.77;;;2.20;;
10719;SDS011;5411;58.386;15.560;2023-09-19T13:11:11;2.37;;;1.47;;
10719;SDS011;5411;58.386;15.560;2023-09-19T13:13:41;1.70;;;1.30;;
10719;SDS011;5411;58.386;15.560;2023-09-19T13:16:16;3.13;;;1.37;;
10719;SDS011;5411;58.386;15.560;2023-09-19T13:18:49;2.20;;;2.00;;
10719;SDS011;5411;58.386;15.560;2023-09-19T13:21:27;4.13;;;1.57;;
10719;SDS011;5411;58.386;15.560;2023-09-19T13:26:48;1.40;;;1.30;;
10719;SDS011;5411;58.386;15.560;2023-09-19T13:29:18;3.10;;;1.20;;
10719;SDS011;5411;58.386;15.560;2023-09-19T13:31:47;3.37;;;1.40;;
10719;SDS011;5411;58.386;15.560;2023-09-19T13:34:16;2.93;;;1.40;;
10719;SDS011;5411;58.386;15.560;2023-09-19T13:36:45;2.10;;;1.30;;
10719;SDS011;5411;58.386;15.560;2023-09-19T13:39:15;1.80;;;1.37;;
10719;SDS011;5411;58.386;15.560;2023-09-19T13:41:46;1.60;;;1.40;;
10719;SDS011;5411;58.386;15.560;2023-09-19T13:44:15;2.10;;;1.60;;
10719;SDS011;5411;58.386;15.560;2023-09-19T13:46:44;1.50;;;1.33;;
10719;SDS011;5411;58.386;15.560;2023-09-19T13:49:14;1.73;;;1.30;;
10719;SDS011;5411;58.386;15.560;2023-09-19T13:51:48;2.03;;;1.10;;
10719;SDS011;5411;58.386;15.560;2023-09-19T13:54:17;2.80;;;1.50;;
10719;SDS011;5411;58.386;15.560;2023-09-19T13:56:48;2.97;;;1.30;;
10719;SDS011;5411;58.386;15.560;2023-09-19T13:59:17;2.67;;;1.30;;
10719;SDS011;5411;58.386;15.560;2023-09-19T14:01:46;1.73;;;1.30;;
10719;SDS011;5411;58.386;15.560;2023-09-19T14:04:15;2.13;;;1.70;;
10719;SDS011;5411;58.386;15.560;2023-09-19T14:06:44;1.63;;;1.23;;
10719;SDS011;5411;58.386;15.560;2023-09-19T14:09:14;1.63;;;1.23;;
10719;SDS011;5411;58.386;15.560;2023-09-19T14:11:46;2.13;;;1.30;;
10719;SDS011;5411;58.386;15.560;2023-09-19T14:14:16;2.17;;;1.30;;
10719;SDS011;5411;58.386;15.560;2023-09-19T14:16:44;1.40;;;1.30;;
10719;SDS011;5411;58.386;15.560;2023-09-19T14:19:12;2.27;;;1.53;;
10719;SDS011;5411;58.386;15.560;2023-09-19T14:21:42;2.77;;;1.30;;
10719;SDS011;5411;58.386;15.560;2023-09-19T14:24:13;1.60;;;1.30;;
10719;SDS011;5411;58.386;15.560;2023-09-19T14:26:45;2.93;;;1.50;;
10719;SDS011;5411;58.386;15.560;2023-09-19T14:29:14;2.47;;;1.43;;
10719;SDS011;5411;58.386;15.560;2023-09-19T14:31:44;1.83;;;1.20;;
10719;SDS011;5411;58.386;15.560;2023-09-19T14:34:22;2.90;;;1.37;;
10719;SDS011;5411;58.386;15.560;2023-09-19T14:36:51;2.23;;;1.43;;
10719;SDS011;5411;58.386;15.560;2023-09-19T14:39:21;1.23;;;1.00;;
10719;SDS011;5411;58.386;15.560;2023-09-19T14:41:49;2.47;;;1.40;;
10719;SDS011;5411;58.386;15.560;2023-09-19T14:44:22;2.73;;;1.47;;
10719;SDS011;5411;58.386;15.560;2023-09-19T14:46:53;2.40;;;1.23;;
10719;SDS011;5411;58.386;15.560;2023-09-19T14:49:21;2.20;;;1.50;;
10719;SDS011;5411;58.386;15.560;2023-09-19T14:51:55;1.80;;;1.20;;
10719;SDS011;5411;58.386;15.560;2023-09-19T14:54:24;2.57;;;1.57;;
10719;SDS011;5411;58.386;15.560;2023-09-19T14:56:56;1.67;;;1.40;;
10719;SDS011;5411;58.386;15.560;2023-09-19T14:59:32;2.50;;;1.50;;
10719;SDS011;5411;58.386;15.560;2023-09-19T15:02:00;4.37;;;1.40;;
10719;SDS011;5411;58.386;15.560;2023-09-19T15:04:32;2.07;;;1.10;;
10719;SDS011;5411;58.386;15.560;2023-09-19T15:07:01;2.17;;;1.33;;
10719;SDS011;5411;58.386;15.560;2023-09-19T15:09:32;3.87;;;1.70;;
10719;SDS011;5411;58.386;15.560;2023-09-19T15:12:19;2.57;;;1.43;;
10719;SDS011;5411;58.386;15.560;2023-09-19T15:14:48;2.60;;;1.60;;
10719;SDS011;5411;58.386;15.560;2023-09-19T15:17:18;6.77;;;1.30;;
10719;SDS011;5411;58.386;15.560;2023-09-19T15:19:49;2.30;;;1.60;;
10719;SDS011;5411;58.386;15.560;2023-09-19T15:22:19;2.93;;;1.37;;
10719;SDS011;5411;58.386;15.560;2023-09-19T15:24:48;3.27;;;1.47;;
10719;SDS011;5411;58.386;15.560;2023-09-19T15:27:16;3.10;;;1.37;;
10719;SDS011;5411;58.386;15.560;2023-09-19T15:29:47;2.40;;;1.40;;